Silver City, New Mexico
Current Conditions -  °F | °C
As of 6:15 PM on Sunday 21 Dec 2014 (Local Time) from KSVC Reporting Station
Clear Clear  
Wind Chill: 39°   Ceiling: Unl
Heat Index: 45°   Visibility: 10mi
Dew Point: 27°   Wind: 12mph
Humidity: 49%   Direction: 330°NNW
Pressure: 30.02"   Gusts: NA
Location:  32.77°N, 108.27°W
Report Text: KSVC 220115Z AUTO 33010KT 10SM CLR 07/M03 A3002 RMK AO2
Loading
Personal Weather Stations






























Interactive Weather Map New forecast layout! Learn more

10-Day Weather Forecast

Advertisements
Track Severe Weather on mobile